Time;durP1;ratioP1;P1;durP2;ratioP2;P2;SDS_P1;SDS_P2;PMS_P1;PMS_P2;Temp;Humidity;BMP_temperature;BMP_pressure;BME280_temperature;BME280_humidity;BME280_pressure;Samples;Min_cycle;Max_cycle;Signal;HPM_P1;HPM_P2
2021/06/12 00:00:36;;;;;;;5.97;2.35;;;;;;;;;;5048227;28;20118;-77
2021/06/12 00:03:03;;;;;;;11.18;2.80;;;;;;;;;;5052434;28;20037;-77
2021/06/12 00:05:29;;;;;;;3.42;2.80;;;;;;;;;;5052621;28;20479;-76
2021/06/12 00:07:54;;;;;;;8.98;2.42;;;;;;;;;;5052228;28;20051;-77
2021/06/12 00:10:26;;;;;;;6.90;2.72;;;;;;;;;;5052949;28;20110;-77
2021/06/12 00:12:52;;;;;;;6.30;2.50;;;;;;;;;;5046352;28;20037;-77
2021/06/12 00:15:19;;;;;;;3.25;2.60;;;;;;;;;;5045772;28;20214;-77
2021/06/12 00:17:45;;;;;;;4.78;2.55;;;;;;;;;;5052031;28;20617;-76
2021/06/12 00:20:14;;;;;;;8.95;2.85;;;;;;;;;;5048356;28;20111;-76
2021/06/12 00:22:42;;;;;;;7.95;2.50;;;;;;;;;;5051709;28;20039;-76
2021/06/12 00:25:10;;;;;;;7.60;2.50;;;;;;;;;;5053149;28;20029;-76
2021/06/12 00:27:39;;;;;;;6.78;2.22;;;;;;;;;;5052486;28;20083;-77
2021/06/12 00:30:06;;;;;;;4.22;2.38;;;;;;;;;;5052395;28;20108;-76
2021/06/12 00:32:31;;;;;;;11.93;2.15;;;;;;;;;;5052894;28;20574;-77
2021/06/12 00:34:56;;;;;;;5.18;2.28;;;;;;;;;;5052667;28;20111;-76
2021/06/12 00:37:22;;;;;;;7.35;2.17;;;;;;;;;;5052595;28;20037;-76
2021/06/12 00:39:47;;;;;;;6.95;2.70;;;;;;;;;;5053000;28;20471;-76
2021/06/12 00:42:13;;;;;;;2.88;2.58;;;;;;;;;;5056425;28;20075;-76
2021/06/12 00:44:38;;;;;;;7.28;2.90;;;;;;;;;;5055682;28;20053;-76
2021/06/12 00:47:04;;;;;;;5.68;2.55;;;;;;;;;;5056373;28;20033;-76
2021/06/12 00:49:29;;;;;;;5.72;2.10;;;;;;;;;;5055643;28;20064;-76
2021/06/12 00:51:54;;;;;;;4.45;2.08;;;;;;;;;;5056302;28;20506;-76
2021/06/12 00:54:20;;;;;;;3.80;2.30;;;;;;;;;;5056257;28;20115;-76
2021/06/12 00:56:45;;;;;;;4.40;2.80;;;;;;;;;;5055806;28;20071;-76
2021/06/12 00:59:11;;;;;;;2.88;2.28;;;;;;;;;;5056043;28;20029;-76
2021/06/12 01:01:36;;;;;;;5.00;2.92;;;;;;;;;;5055676;28;20085;-76
2021/06/12 01:04:02;;;;;;;10.93;2.60;;;;;;;;;;5054417;28;20037;-77
2021/06/12 01:06:27;;;;;;;5.00;2.03;;;;;;;;;;5054793;28;20039;-76
2021/06/12 01:08:53;;;;;;;3.13;2.13;;;;;;;;;;5056083;28;20037;-76
2021/06/12 01:11:18;;;;;;;4.82;2.30;;;;;;;;;;5054490;28;20037;-76
2021/06/12 01:14:10;;;;;;;6.35;2.35;;;;;;;;;;5055709;28;20170;-77
2021/06/12 01:16:52;;;;;;;3.05;2.25;;;;;;;;;;5055453;28;20078;-76
2021/06/12 01:19:42;;;;;;;3.35;2.50;;;;;;;;;;5054962;28;20029;-76
2021/06/12 01:22:14;;;;;;;3.67;2.50;;;;;;;;;;5037788;28;20571;-76
2021/06/12 01:24:54;;;;;;;5.18;2.97;;;;;;;;;;5055525;28;20040;-76
2021/06/12 01:27:23;;;;;;;7.18;2.53;;;;;;;;;;5055126;28;20048;-77
2021/06/12 01:30:04;;;;;;;7.85;2.60;;;;;;;;;;5054421;28;20040;-76
2021/06/12 01:32:33;;;;;;;8.45;3.25;;;;;;;;;;5055357;28;20487;-76
2021/06/12 01:35:04;;;;;;;9.73;2.80;;;;;;;;;;5055356;28;20037;-77
2021/06/12 01:37:33;;;;;;;10.15;2.80;;;;;;;;;;5054055;28;20475;-77
2021/06/12 01:40:00;;;;;;;10.60;2.50;;;;;;;;;;5055408;28;20029;-76
2021/06/12 01:42:27;;;;;;;7.40;2.33;;;;;;;;;;5055258;28;20376;-76
2021/06/12 01:44:52;;;;;;;6.35;2.85;;;;;;;;;;5054696;28;20045;-76
2021/06/12 01:47:20;;;;;;;10.10;2.95;;;;;;;;;;5055393;28;20044;-76
2021/06/12 01:49:47;;;;;;;6.45;2.72;;;;;;;;;;5053984;28;20047;-76
2021/06/12 01:52:14;;;;;;;5.88;2.47;;;;;;;;;;5053622;28;20122;-76
2021/06/12 01:54:40;;;;;;;4.07;2.70;;;;;;;;;;5054943;28;20044;-76
2021/06/12 01:57:06;;;;;;;3.55;2.67;;;;;;;;;;5053319;28;20041;-76
2021/06/12 01:59:32;;;;;;;3.20;2.83;;;;;;;;;;5052415;28;20033;-76
2021/06/12 02:02:01;;;;;;;8.05;2.83;;;;;;;;;;5054989;28;20033;-76
2021/06/12 02:04:28;;;;;;;2.65;2.42;;;;;;;;;;5054879;28;20072;-76
2021/06/12 02:07:01;;;;;;;5.57;2.60;;;;;;;;;;5054825;28;20033;-77
2021/06/12 02:09:28;;;;;;;3.70;2.83;;;;;;;;;;5054796;28;20031;-77
2021/06/12 02:11:54;;;;;;;13.57;3.55;;;;;;;;;;5054806;28;20036;-77
2021/06/12 02:14:20;;;;;;;6.03;2.53;;;;;;;;;;5053447;28;20450;-77
2021/06/12 02:16:46;;;;;;;8.85;2.72;;;;;;;;;;5054640;28;20046;-76
2021/06/12 02:19:12;;;;;;;7.57;2.75;;;;;;;;;;5054561;28;20124;-76
2021/06/12 02:21:38;;;;;;;5.53;3.08;;;;;;;;;;5054574;28;20064;-76
2021/06/12 02:24:04;;;;;;;9.35;2.70;;;;;;;;;;5054598;28;20041;-76
2021/06/12 02:26:31;;;;;;;4.32;2.53;;;;;;;;;;5054622;28;20056;-77
2021/06/12 02:28:58;;;;;;;4.85;2.70;;;;;;;;;;5052973;28;20532;-77
2021/06/12 02:31:28;;;;;;;4.35;2.50;;;;;;;;;;5054337;28;20127;-76
2021/06/12 02:33:54;;;;;;;8.55;3.35;;;;;;;;;;5054320;28;20040;-76
2021/06/12 02:36:19;;;;;;;3.58;2.83;;;;;;;;;;5054276;28;20374;-76
2021/06/12 02:38:46;;;;;;;8.93;3.58;;;;;;;;;;5053954;28;20033;-76
2021/06/12 02:41:12;;;;;;;6.63;3.40;;;;;;;;;;5054103;28;20398;-76
2021/06/12 02:43:37;;;;;;;10.57;2.50;;;;;;;;;;5052612;28;20045;-77
2021/06/12 02:46:04;;;;;;;7.22;3.05;;;;;;;;;;5054034;28;20029;-76
2021/06/12 02:48:32;;;;;;;5.10;2.70;;;;;;;;;;5052863;28;20475;-77
2021/06/12 02:50:59;;;;;;;9.73;2.72;;;;;;;;;;5052876;28;20041;-77
2021/06/12 02:53:28;;;;;;;7.07;2.90;;;;;;;;;;5052342;28;20037;-77
2021/06/12 02:55:56;;;;;;;8.32;2.70;;;;;;;;;;5053957;28;20036;-77
2021/06/12 02:58:24;;;;;;;8.18;3.22;;;;;;;;;;5053293;28;20102;-76
2021/06/12 03:00:51;;;;;;;7.53;2.70;;;;;;;;;;5053815;28;20055;-76
2021/06/12 03:03:16;;;;;;;8.15;2.60;;;;;;;;;;5053099;28;20120;-76
2021/06/12 03:05:55;;;;;;;4.68;2.53;;;;;;;;;;5052274;28;20140;-77
2021/06/12 03:08:22;;;;;;;4.45;2.95;;;;;;;;;;5052198;28;20035;-76
2021/06/12 03:10:51;;;;;;;4.85;3.13;;;;;;;;;;5053760;28;20033;-76
2021/06/12 03:13:20;;;;;;;8.23;3.00;;;;;;;;;;5053349;28;20379;-76
2021/06/12 03:15:48;;;;;;;6.95;2.80;;;;;;;;;;5053434;28;20483;-76
2021/06/12 03:18:13;;;;;;;4.00;2.85;;;;;;;;;;5053285;28;20037;-76
2021/06/12 03:20:40;;;;;;;12.95;3.00;;;;;;;;;;5052213;28;20032;-76
2021/06/12 03:23:07;;;;;;;5.18;2.88;;;;;;;;;;5053456;28;20037;-76
2021/06/12 03:25:33;;;;;;;9.63;3.28;;;;;;;;;;5053192;28;20033;-76
2021/06/12 03:27:59;;;;;;;5.18;3.25;;;;;;;;;;5053391;28;20024;-76
2021/06/12 03:30:26;;;;;;;4.45;2.78;;;;;;;;;;5052267;28;20032;-76
2021/06/12 03:32:52;;;;;;;5.18;3.20;;;;;;;;;;5053218;28;20037;-76
2021/06/12 03:35:19;;;;;;;6.55;3.20;;;;;;;;;;5051954;28;20105;-76
2021/06/12 03:37:47;;;;;;;4.90;2.83;;;;;;;;;;5053270;28;20037;-77
2021/06/12 03:40:13;;;;;;;4.43;3.00;;;;;;;;;;5052107;28;20056;-77
2021/06/12 03:42:40;;;;;;;5.30;2.90;;;;;;;;;;5052062;28;20033;-76
2021/06/12 03:45:09;;;;;;;4.75;3.05;;;;;;;;;;5052723;28;20071;-76
2021/06/12 03:47:35;;;;;;;10.73;2.75;;;;;;;;;;5052818;28;20036;-76
2021/06/12 03:50:04;;;;;;;8.63;2.70;;;;;;;;;;5053215;28;20406;-76
2021/06/12 03:52:30;;;;;;;5.60;3.05;;;;;;;;;;5053166;28;20041;-76
2021/06/12 03:54:57;;;;;;;6.53;3.05;;;;;;;;;;5053017;28;20068;-76
2021/06/12 03:57:24;;;;;;;3.97;2.72;;;;;;;;;;5051730;28;20071;-76
2021/06/12 03:59:49;;;;;;;7.93;3.17;;;;;;;;;;5052649;28;20076;-76
2021/06/12 04:02:16;;;;;;;7.13;3.63;;;;;;;;;;5052877;28;20064;-76
2021/06/12 04:04:46;;;;;;;4.50;3.13;;;;;;;;;;5052882;28;20029;-76
2021/06/12 04:07:12;;;;;;;5.78;3.05;;;;;;;;;;5052894;28;20136;-76
2021/06/12 04:09:37;;;;;;;5.88;2.88;;;;;;;;;;5053060;28;20048;-76
2021/06/12 04:12:03;;;;;;;4.93;2.88;;;;;;;;;;5051722;28;20037;-77
2021/06/12 04:14:29;;;;;;;4.45;3.15;;;;;;;;;;5054189;28;20036;-76
2021/06/12 04:16:54;;;;;;;4.57;2.97;;;;;;;;;;5055445;28;20086;-76
2021/06/12 04:19:20;;;;;;;8.35;2.90;;;;;;;;;;5056797;28;20060;-76
2021/06/12 04:21:45;;;;;;;4.82;2.97;;;;;;;;;;5055733;28;20416;-76
2021/06/12 04:24:11;;;;;;;4.13;2.72;;;;;;;;;;5056790;28;20498;-76
2021/06/12 04:26:37;;;;;;;3.20;2.90;;;;;;;;;;5056674;28;20128;-76
2021/06/12 04:29:02;;;;;;;5.15;3.10;;;;;;;;;;5055428;28;20032;-76
2021/06/12 04:31:28;;;;;;;4.38;3.20;;;;;;;;;;5056449;28;20440;-76
2021/06/12 04:33:53;;;;;;;4.88;2.97;;;;;;;;;;5056687;28;20045;-76
2021/06/12 04:36:18;;;;;;;3.65;2.63;;;;;;;;;;5056656;28;20055;-76
2021/06/12 04:38:44;;;;;;;9.55;3.03;;;;;;;;;;5056412;28;20128;-76
2021/06/12 04:41:10;;;;;;;8.32;2.90;;;;;;;;;;5056361;28;20029;-76
2021/06/12 04:43:35;;;;;;;3.85;2.90;;;;;;;;;;5055851;28;20490;-76
2021/06/12 04:46:01;;;;;;;7.47;3.42;;;;;;;;;;5056359;28;20036;-76
2021/06/12 04:48:26;;;;;;;7.03;3.08;;;;;;;;;;5055145;28;20029;-76
2021/06/12 04:50:52;;;;;;;6.40;3.42;;;;;;;;;;5056264;28;20040;-76
2021/06/12 04:53:17;;;;;;;8.43;3.10;;;;;;;;;;5054678;28;20095;-76
2021/06/12 04:55:43;;;;;;;5.03;3.10;;;;;;;;;;5056172;28;20068;-76
2021/06/12 04:58:11;;;;;;;7.28;2.97;;;;;;;;;;5055145;28;20041;-77
2021/06/12 05:00:38;;;;;;;3.55;2.92;;;;;;;;;;5055769;28;20041;-76
2021/06/12 05:03:05;;;;;;;5.90;2.90;;;;;;;;;;5056024;28;20037;-76
2021/06/12 05:05:31;;;;;;;4.13;2.97;;;;;;;;;;5055983;28;20479;-77
2021/06/12 05:07:57;;;;;;;7.47;3.13;;;;;;;;;;5055967;28;20025;-76
2021/06/12 05:10:22;;;;;;;6.95;3.10;;;;;;;;;;5056084;28;20041;-77
2021/06/12 05:12:48;;;;;;;4.60;3.63;;;;;;;;;;5056018;28;20041;-77
2021/06/12 05:15:13;;;;;;;4.20;3.28;;;;;;;;;;5054113;28;20045;-77
2021/06/12 05:17:43;;;;;;;3.55;3.08;;;;;;;;;;5055830;28;20033;-77
2021/06/12 05:20:10;;;;;;;7.15;3.38;;;;;;;;;;5056654;28;20051;-76
2021/06/12 05:22:36;;;;;;;7.38;4.72;;;;;;;;;;5056233;28;20433;-76
2021/06/12 05:25:03;;;;;;;4.18;3.10;;;;;;;;;;5055108;28;20033;-76
2021/06/12 05:27:28;;;;;;;8.23;3.53;;;;;;;;;;5055471;28;20037;-76
2021/06/12 05:29:53;;;;;;;6.72;3.30;;;;;;;;;;5054887;28;20032;-76
2021/06/12 05:32:19;;;;;;;5.35;3.35;;;;;;;;;;5055928;28;20036;-76
2021/06/12 05:34:44;;;;;;;12.63;5.22;;;;;;;;;;5056158;28;20391;-76
2021/06/12 05:37:11;;;;;;;14.60;3.80;;;;;;;;;;5056444;28;20032;-76
2021/06/12 05:39:37;;;;;;;5.70;3.50;;;;;;;;;;5056286;28;20064;-76
2021/06/12 05:42:03;;;;;;;8.13;3.67;;;;;;;;;;5054466;28;20064;-76
2021/06/12 05:44:28;;;;;;;4.10;3.20;;;;;;;;;;5055395;28;20049;-77
2021/06/12 05:46:54;;;;;;;8.85;3.25;;;;;;;;;;5055590;28;20141;-77
2021/06/12 05:49:20;;;;;;;9.45;4.00;;;;;;;;;;5054714;28;20111;-75
2021/06/12 05:51:46;;;;;;;5.85;3.88;;;;;;;;;;5055278;28;20048;-77
2021/06/12 05:54:12;;;;;;;7.75;3.63;;;;;;;;;;5054208;28;20048;-78
2021/06/12 05:56:37;;;;;;;7.35;3.88;;;;;;;;;;5054097;28;20037;-77
2021/06/12 05:59:03;;;;;;;6.20;4.38;;;;;;;;;;5053787;28;20127;-77
2021/06/12 06:01:29;;;;;;;4.63;3.45;;;;;;;;;;5054977;28;20029;-76
2021/06/12 06:03:54;;;;;;;9.18;3.58;;;;;;;;;;5055056;28;20398;-76
2021/06/12 06:06:20;;;;;;;9.63;4.18;;;;;;;;;;5054925;28;20037;-77
2021/06/12 06:08:45;;;;;;;6.45;3.80;;;;;;;;;;5053537;28;20036;-76
2021/06/12 06:11:11;;;;;;;9.88;5.30;;;;;;;;;;5054736;28;20120;-77
2021/06/12 06:13:41;;;;;;;16.00;6.90;;;;;;;;;;5053493;28;20033;-77
2021/06/12 06:16:09;;;;;;;10.13;7.18;;;;;;;;;;5054370;28;20457;-76
2021/06/12 06:18:35;;;;;;;14.15;8.23;;;;;;;;;;5054713;28;20076;-76
2021/06/12 06:21:00;;;;;;;17.83;10.63;;;;;;;;;;5053510;28;20064;-76
2021/06/12 06:23:26;;;;;;;18.25;9.35;;;;;;;;;;5054665;28;20112;-77
2021/06/12 06:25:51;;;;;;;13.73;9.88;;;;;;;;;;5054465;28;20517;-77
2021/06/12 06:28:17;;;;;;;13.77;9.45;;;;;;;;;;5053972;28;20121;-77
2021/06/12 06:30:43;;;;;;;14.25;10.57;;;;;;;;;;5053844;28;20041;-76
2021/06/12 06:33:08;;;;;;;13.70;9.73;;;;;;;;;;5054484;28;20043;-76
2021/06/12 06:35:34;;;;;;;16.10;9.75;;;;;;;;;;5054278;28;20437;-77
2021/06/12 06:37:59;;;;;;;18.52;9.73;;;;;;;;;;5053340;28;20086;-77
2021/06/12 06:40:26;;;;;;;16.65;9.85;;;;;;;;;;5054354;28;20071;-77
2021/06/12 06:42:51;;;;;;;12.00;8.95;;;;;;;;;;5053163;28;20056;-77
2021/06/12 06:45:16;;;;;;;15.68;9.48;;;;;;;;;;5055730;28;20060;-80
2021/06/12 06:47:42;;;;;;;12.85;9.02;;;;;;;;;;5066446;28;20044;-79
2021/06/12 06:50:08;;;;;;;19.20;8.90;;;;;;;;;;5060500;28;20063;-81
2021/06/12 06:52:34;;;;;;;13.30;7.85;;;;;;;;;;5057326;28;20048;-79
2021/06/12 06:54:59;;;;;;;14.82;8.30;;;;;;;;;;5064181;28;20028;-80
2021/06/12 06:57:25;;;;;;;15.18;8.60;;;;;;;;;;5064854;28;20081;-79
2021/06/12 06:59:51;;;;;;;11.70;6.93;;;;;;;;;;5059080;28;20028;-79
2021/06/12 07:02:16;;;;;;;8.65;6.40;;;;;;;;;;5056604;28;20033;-79
2021/06/12 07:04:41;;;;;;;9.27;5.53;;;;;;;;;;5058893;28;20028;-79
2021/06/12 07:07:07;;;;;;;11.95;6.30;;;;;;;;;;5057984;28;20540;-78
2021/06/12 07:09:33;;;;;;;9.50;5.43;;;;;;;;;;5059894;28;20399;-79
2021/06/12 07:12:00;;;;;;;10.95;6.05;;;;;;;;;;5056037;28;20048;-78
2021/06/12 07:14:26;;;;;;;9.85;4.47;;;;;;;;;;5054251;28;20521;-76
2021/06/12 07:16:52;;;;;;;9.65;4.72;;;;;;;;;;5055529;28;20429;-77
2021/06/12 07:19:19;;;;;;;8.88;4.97;;;;;;;;;;5056884;28;20104;-83
2021/06/12 07:21:45;;;;;;;6.60;4.63;;;;;;;;;;5059696;28;20037;-78
2021/06/12 07:24:10;;;;;;;9.75;4.80;;;;;;;;;;5060792;28;20043;-78
2021/06/12 07:26:36;;;;;;;14.75;4.57;;;;;;;;;;5057589;28;20086;-80
2021/06/12 07:29:01;;;;;;;7.75;4.50;;;;;;;;;;5050662;28;20498;-79
2021/06/12 07:31:27;;;;;;;11.23;4.43;;;;;;;;;;5042055;28;20045;-80
2021/06/12 07:33:52;;;;;;;6.57;4.28;;;;;;;;;;5037280;28;20124;-81
2021/06/12 07:36:17;;;;;;;7.22;4.90;;;;;;;;;;5041943;28;20086;-81
2021/06/12 07:38:43;;;;;;;5.13;3.65;;;;;;;;;;5041571;28;20083;-82
2021/06/12 07:41:08;;;;;;;6.40;3.50;;;;;;;;;;5040353;28;20041;-80
2021/06/12 07:43:34;;;;;;;10.57;3.67;;;;;;;;;;5037577;28;20584;-79
2021/06/12 07:45:59;;;;;;;10.02;4.00;;;;;;;;;;5037472;28;20041;-78
2021/06/12 07:48:25;;;;;;;8.57;3.95;;;;;;;;;;5037014;28;20033;-79
2021/06/12 07:50:50;;;;;;;6.63;4.07;;;;;;;;;;5047660;28;20387;-79
2021/06/12 07:53:15;;;;;;;8.10;4.65;;;;;;;;;;5056797;28;20044;-79
2021/06/12 07:55:41;;;;;;;7.97;3.85;;;;;;;;;;5056725;28;20037;-79
2021/06/12 07:58:06;;;;;;;5.72;3.60;;;;;;;;;;5055253;28;20029;-81
2021/06/12 08:00:32;;;;;;;8.68;4.43;;;;;;;;;;5058183;28;20045;-80
2021/06/12 08:02:57;;;;;;;6.28;3.80;;;;;;;;;;5055475;28;20096;-79
2021/06/12 08:05:24;;;;;;;7.28;3.72;;;;;;;;;;5055689;28;20051;-78
2021/06/12 08:07:50;;;;;;;6.55;3.55;;;;;;;;;;5037110;28;20120;-78
2021/06/12 08:10:16;;;;;;;6.20;3.72;;;;;;;;;;5054348;28;20048;-74
2021/06/12 08:12:41;;;;;;;7.15;3.20;;;;;;;;;;5052306;28;20048;-76
2021/06/12 08:15:08;;;;;;;12.52;4.18;;;;;;;;;;5051438;28;20656;-76
2021/06/12 08:17:34;;;;;;;12.13;5.18;;;;;;;;;;5051915;28;20033;-76
2021/06/12 08:20:00;;;;;;;6.75;4.07;;;;;;;;;;5052842;28;20061;-77
2021/06/12 08:22:25;;;;;;;8.43;3.80;;;;;;;;;;5051733;28;20471;-75
2021/06/12 08:24:51;;;;;;;6.50;4.18;;;;;;;;;;5053143;28;20077;-75
2021/06/12 08:27:17;;;;;;;9.20;4.68;;;;;;;;;;5053898;28;20070;-77
2021/06/12 08:29:43;;;;;;;7.65;4.25;;;;;;;;;;5051133;28;20425;-76
2021/06/12 08:32:09;;;;;;;8.15;4.10;;;;;;;;;;5052810;28;20037;-76
2021/06/12 08:34:35;;;;;;;5.03;3.28;;;;;;;;;;5051571;28;20091;-75
2021/06/12 08:37:04;;;;;;;4.93;3.45;;;;;;;;;;5051390;28;20483;-76
2021/06/12 08:39:31;;;;;;;7.07;3.95;;;;;;;;;;5052875;28;20479;-75
2021/06/12 08:41:58;;;;;;;10.05;4.00;;;;;;;;;;5051578;28;20425;-76
2021/06/12 08:44:25;;;;;;;6.72;3.78;;;;;;;;;;5034980;28;20115;-76
2021/06/12 08:46:51;;;;;;;6.35;3.70;;;;;;;;;;5035580;28;20090;-76
2021/06/12 08:49:17;;;;;;;10.10;3.85;;;;;;;;;;5054645;28;20033;-77
2021/06/12 08:51:42;;;;;;;6.60;4.13;;;;;;;;;;5053130;28;20041;-76
2021/06/12 08:54:09;;;;;;;6.95;3.75;;;;;;;;;;5053092;28;20029;-77
2021/06/12 08:56:35;;;;;;;5.70;3.50;;;;;;;;;;5042026;28;20040;-77
2021/06/12 08:59:00;;;;;;;11.25;4.18;;;;;;;;;;5047710;28;20039;-76
2021/06/12 09:01:26;;;;;;;7.72;3.25;;;;;;;;;;5053201;28;20457;-77
2021/06/12 09:03:52;;;;;;;11.20;5.10;;;;;;;;;;5054948;28;20510;-77
2021/06/12 09:06:20;;;;;;;6.22;3.90;;;;;;;;;;5056085;28;20043;-78
2021/06/12 09:08:46;;;;;;;13.73;4.28;;;;;;;;;;5056216;28;20028;-79
2021/06/12 09:11:17;;;;;;;7.72;3.45;;;;;;;;;;5055851;28;20364;-77
2021/06/12 09:13:51;;;;;;;12.90;4.35;;;;;;;;;;5054821;28;20037;-77
2021/06/12 09:16:32;;;;;;;11.70;4.00;;;;;;;;;;5055854;28;20418;-76
2021/06/12 09:19:09;;;;;;;8.80;4.03;;;;;;;;;;5055781;28;20490;-78
2021/06/12 09:21:37;;;;;;;4.70;3.17;;;;;;;;;;5055927;28;20506;-76
2021/06/12 09:24:05;;;;;;;9.07;3.53;;;;;;;;;;5055885;28;20526;-76
2021/06/12 09:26:58;;;;;;;8.70;3.65;;;;;;;;;;5055734;28;20037;-76
2021/06/12 09:29:43;;;;;;;15.18;4.32;;;;;;;;;;5054907;28;20167;-77
2021/06/12 09:32:23;;;;;;;14.60;4.10;;;;;;;;;;5055844;28;20040;-76
2021/06/12 09:34:51;;;;;;;4.30;3.03;;;;;;;;;;5054754;28;20036;-76
2021/06/12 09:37:22;;;;;;;7.80;3.00;;;;;;;;;;5037517;28;20158;-76
2021/06/12 09:40:08;;;;;;;5.22;3.60;;;;;;;;;;5053966;28;20033;-76
2021/06/12 09:42:41;;;;;;;8.63;3.50;;;;;;;;;;5054489;28;20033;-76
2021/06/12 09:45:09;;;;;;;5.60;3.88;;;;;;;;;;5054348;28;20139;-78
2021/06/12 09:47:34;;;;;;;11.77;4.22;;;;;;;;;;5055449;28;20462;-76
2021/06/12 09:50:02;;;;;;;7.45;4.43;;;;;;;;;;5055745;28;20072;-76
2021/06/12 09:52:28;;;;;;;9.88;4.15;;;;;;;;;;5055507;28;20505;-74
2021/06/12 09:54:53;;;;;;;9.07;3.78;;;;;;;;;;5054055;28;20162;-76
2021/06/12 09:57:24;;;;;;;6.13;4.20;;;;;;;;;;5055278;28;20513;-76
2021/06/12 09:59:53;;;;;;;12.07;4.63;;;;;;;;;;5053934;28;20045;-76
2021/06/12 10:02:40;;;;;;;7.85;4.35;;;;;;;;;;5055302;28;20091;-77
2021/06/12 10:05:09;;;;;;;11.45;4.85;;;;;;;;;;5055869;28;20033;-77
2021/06/12 10:07:35;;;;;;;4.50;3.60;;;;;;;;;;5054443;28;20036;-77
2021/06/12 10:10:05;;;;;;;9.88;3.40;;;;;;;;;;5054748;28;20123;-76
2021/06/12 10:12:30;;;;;;;15.20;3.90;;;;;;;;;;5054500;28;20111;-76
2021/06/12 10:14:57;;;;;;;5.35;3.38;;;;;;;;;;5054405;28;20100;-77
2021/06/12 10:17:23;;;;;;;7.38;3.60;;;;;;;;;;5054480;28;20391;-77
2021/06/12 10:19:53;;;;;;;5.47;3.33;;;;;;;;;;5053228;28;20029;-77
2021/06/12 10:22:20;;;;;;;10.13;3.45;;;;;;;;;;5048248;28;20036;-76
2021/06/12 10:24:49;;;;;;;4.40;2.80;;;;;;;;;;5041927;28;20098;-77
2021/06/12 10:27:16;;;;;;;5.22;3.00;;;;;;;;;;5047675;28;20032;-78
2021/06/12 10:29:45;;;;;;;7.07;3.25;;;;;;;;;;5042770;28;20030;-78
2021/06/12 10:32:13;;;;;;;7.97;3.25;;;;;;;;;;5041043;28;20041;-76
2021/06/12 10:34:40;;;;;;;4.93;2.97;;;;;;;;;;5034776;28;20476;-76
2021/06/12 10:37:08;;;;;;;7.65;3.40;;;;;;;;;;5034227;28;20057;-76
2021/06/12 10:39:36;;;;;;;6.25;3.95;;;;;;;;;;5034238;28;20419;-77
2021/06/12 10:42:09;;;;;;;4.55;3.45;;;;;;;;;;5034827;28;20120;-77
2021/06/12 10:44:35;;;;;;;7.45;3.75;;;;;;;;;;5032355;28;20103;-77
2021/06/12 10:47:00;;;;;;;7.45;4.07;;;;;;;;;;5034222;28;20030;-77
2021/06/12 10:49:30;;;;;;;7.50;3.70;;;;;;;;;;5034650;28;20455;-76
2021/06/12 10:51:56;;;;;;;5.75;4.13;;;;;;;;;;5034263;28;20064;-75
2021/06/12 10:54:23;;;;;;;5.80;3.90;;;;;;;;;;5034079;28;20037;-77
2021/06/12 10:56:55;;;;;;;6.68;3.72;;;;;;;;;;5032581;28;20069;-75
2021/06/12 10:59:32;;;;;;;5.15;3.60;;;;;;;;;;5046757;28;20048;-76
2021/06/12 11:02:04;;;;;;;6.22;3.72;;;;;;;;;;5032854;28;20091;-77
2021/06/12 11:05:05;;;;;;;8.88;3.85;;;;;;;;;;5032777;28;20057;-76
2021/06/12 11:07:39;;;;;;;8.23;3.70;;;;;;;;;;5034222;28;20087;-80
2021/06/12 11:10:10;;;;;;;8.00;4.05;;;;;;;;;;5040703;28;20052;-77
2021/06/12 11:12:37;;;;;;;8.70;4.40;;;;;;;;;;5047897;28;20033;-75
2021/06/12 11:15:10;;;;;;;9.27;4.45;;;;;;;;;;5041714;28;20033;-75
2021/06/12 11:17:38;;;;;;;9.00;3.50;;;;;;;;;;5038175;28;20041;-75
2021/06/12 11:20:03;;;;;;;5.38;4.05;;;;;;;;;;5048418;28;20040;-76
2021/06/12 11:22:37;;;;;;;5.90;3.78;;;;;;;;;;5048753;28;20348;-76
2021/06/12 11:25:08;;;;;;;6.05;3.90;;;;;;;;;;5038780;28;20048;-77
2021/06/12 11:27:43;;;;;;;4.30;3.80;;;;;;;;;;5051130;28;20045;-76
2021/06/12 11:30:12;;;;;;;6.25;3.80;;;;;;;;;;5038745;28;20112;-75
2021/06/12 11:32:39;;;;;;;4.80;3.63;;;;;;;;;;5034461;28;20072;-76
2021/06/12 11:35:05;;;;;;;7.03;4.20;;;;;;;;;;5033206;28;20424;-75
2021/06/12 11:37:31;;;;;;;10.27;4.40;;;;;;;;;;5033182;28;20112;-76
2021/06/12 11:39:59;;;;;;;4.25;3.22;;;;;;;;;;5033396;28;20095;-76
2021/06/12 11:42:45;;;;;;;11.15;4.35;;;;;;;;;;5033198;28;20029;-76
2021/06/12 11:45:16;;;;;;;6.90;4.70;;;;;;;;;;5032808;28;20053;-76
2021/06/12 11:47:41;;;;;;;6.45;3.70;;;;;;;;;;5033238;28;20072;-77
2021/06/12 11:50:07;;;;;;;6.93;3.53;;;;;;;;;;5035596;28;20046;-77
2021/06/12 11:52:41;;;;;;;10.18;4.22;;;;;;;;;;5015469;28;20033;-78
2021/06/12 11:55:16;;;;;;;8.80;4.78;;;;;;;;;;5034109;28;20049;-78
2021/06/12 11:57:43;;;;;;;8.90;3.97;;;;;;;;;;5034251;28;20042;-78
2021/06/12 12:00:24;;;;;;;7.93;4.90;;;;;;;;;;5054997;28;20043;-78
2021/06/12 12:03:08;;;;;;;4.40;3.65;;;;;;;;;;5074359;28;20024;-78
2021/06/12 12:05:42;;;;;;;20.65;4.80;;;;;;;;;;5075891;28;20066;-78
2021/06/12 12:08:10;;;;;;;6.93;4.22;;;;;;;;;;5074009;28;20029;-77
2021/06/12 12:10:36;;;;;;;7.80;3.90;;;;;;;;;;5075650;28;20036;-78
2021/06/12 12:13:02;;;;;;;4.93;3.03;;;;;;;;;;5075116;28;20085;-78
2021/06/12 12:15:42;;;;;;;13.57;3.80;;;;;;;;;;5074907;28;20119;-78
2021/06/12 12:18:11;;;;;;;4.50;2.83;;;;;;;;;;5073626;28;20044;-78
2021/06/12 12:20:43;;;;;;;4.55;3.35;;;;;;;;;;5075951;28;20538;-78
2021/06/12 12:23:29;;;;;;;3.58;2.20;;;;;;;;;;5078869;28;20040;-78
2021/06/12 12:26:10;;;;;;;7.57;2.92;;;;;;;;;;5074544;28;20181;-78
2021/06/12 12:29:14;;;;;;;7.50;3.30;;;;;;;;;;5073287;28;20033;-77
2021/06/12 12:31:47;;;;;;;7.15;2.85;;;;;;;;;;5070580;28;20068;-77
2021/06/12 12:34:13;;;;;;;5.95;2.80;;;;;;;;;;5038673;28;20057;-77
2021/06/12 12:36:47;;;;;;;6.78;3.10;;;;;;;;;;5036982;28;20376;-78
2021/06/12 12:39:13;;;;;;;7.85;2.53;;;;;;;;;;5036455;28;20471;-78
2021/06/12 12:41:39;;;;;;;5.53;2.58;;;;;;;;;;5036845;28;20033;-77
2021/06/12 12:44:10;;;;;;;10.85;3.58;;;;;;;;;;5036211;28;20053;-76
2021/06/12 12:46:36;;;;;;;10.80;2.95;;;;;;;;;;5036605;28;20052;-77
2021/06/12 12:49:04;;;;;;;6.90;2.97;;;;;;;;;;5036286;28;20033;-78
2021/06/12 12:51:29;;;;;;;5.40;3.17;;;;;;;;;;5036514;28;20037;-77
2021/06/12 12:54:08;;;;;;;4.28;2.42;;;;;;;;;;5040782;28;20124;-80
2021/06/12 12:56:45;;;;;;;6.18;2.60;;;;;;;;;;5039643;28;20487;-81
2021/06/12 12:59:11;;;;;;;7.07;2.28;;;;;;;;;;5041828;28;20037;-80
2021/06/12 13:01:36;;;;;;;9.25;2.95;;;;;;;;;;5061519;28;20521;-81
2021/06/12 13:04:02;;;;;;;6.57;2.63;;;;;;;;;;5078917;28;20040;-82
2021/06/12 13:06:37;;;;;;;9.02;2.75;;;;;;;;;;5080586;28;20081;-80
2021/06/12 13:09:19;;;;;;;9.05;2.50;;;;;;;;;;5079503;28;20488;-79
2021/06/12 13:11:54;;;;;;;5.38;2.50;;;;;;;;;;5078459;28;20445;-79
2021/06/12 13:14:31;;;;;;;3.97;2.42;;;;;;;;;;5078213;28;20042;-81
2021/06/12 13:17:08;;;;;;;6.53;1.98;;;;;;;;;;5075824;28;20033;-78
2021/06/12 13:19:35;;;;;;;10.85;2.30;;;;;;;;;;5074533;28;20064;-77
2021/06/12 13:22:02;;;;;;;4.60;2.53;;;;;;;;;;5075743;28;20039;-76
2021/06/12 13:24:27;;;;;;;13.23;2.42;;;;;;;;;;5076308;28;20032;-79
2021/06/12 13:26:53;;;;;;;5.93;2.00;;;;;;;;;;5075765;28;20150;-77
2021/06/12 13:29:28;;;;;;;7.88;2.25;;;;;;;;;;5075856;28;20048;-77
2021/06/12 13:31:54;;;;;;;6.18;1.90;;;;;;;;;;5055367;28;20079;-77
2021/06/12 13:34:23;;;;;;;8.43;1.98;;;;;;;;;;5056591;28;20033;-78
2021/06/12 13:36:53;;;;;;;15.77;2.35;;;;;;;;;;5056398;28;20037;-77
2021/06/12 13:39:36;;;;;;;6.82;1.73;;;;;;;;;;5054621;28;20100;-78
2021/06/12 13:42:12;;;;;;;7.90;1.67;;;;;;;;;;5055868;28;20032;-78
2021/06/12 13:44:39;;;;;;;9.45;1.52;;;;;;;;;;5055745;28;20045;-77
2021/06/12 13:47:04;;;;;;;9.18;1.65;;;;;;;;;;5053524;28;20127;-77
2021/06/12 13:49:30;;;;;;;4.90;1.83;;;;;;;;;;5054828;28;20192;-78
2021/06/12 13:51:56;;;;;;;5.43;2.03;;;;;;;;;;5055846;28;20033;-78
2021/06/12 13:54:23;;;;;;;6.32;1.83;;;;;;;;;;5055699;28;20033;-78
2021/06/12 13:56:50;;;;;;;5.82;1.80;;;;;;;;;;5054400;28;20048;-76
2021/06/12 13:59:15;;;;;;;3.75;1.60;;;;;;;;;;5071235;28;20063;-76
2021/06/12 14:01:41;;;;;;;6.28;1.90;;;;;;;;;;5074997;28;20489;-77
2021/06/12 14:04:06;;;;;;;13.95;1.75;;;;;;;;;;5074531;28;20041;-77
2021/06/12 14:06:32;;;;;;;3.38;1.40;;;;;;;;;;5074906;28;20047;-78
2021/06/12 14:08:57;;;;;;;4.22;1.70;;;;;;;;;;5074702;28;20036;-77
2021/06/12 14:11:23;;;;;;;9.20;2.00;;;;;;;;;;5073546;28;20047;-77
2021/06/12 14:13:48;;;;;;;7.10;1.98;;;;;;;;;;5073348;28;20043;-76
2021/06/12 14:16:14;;;;;;;6.93;1.60;;;;;;;;;;5074627;28;20086;-76
2021/06/12 14:18:39;;;;;;;2.17;1.20;;;;;;;;;;5072899;28;20036;-77
2021/06/12 14:21:05;;;;;;;2.38;1.30;;;;;;;;;;5074674;28;20039;-76
2021/06/12 14:23:31;;;;;;;8.75;1.73;;;;;;;;;;5074523;28;20044;-77
2021/06/12 14:25:57;;;;;;;3.58;1.30;;;;;;;;;;5074588;28;20078;-76
2021/06/12 14:28:25;;;;;;;5.20;1.75;;;;;;;;;;5063763;28;20016;-76
2021/06/12 14:30:51;;;;;;;9.25;1.80;;;;;;;;;;5054305;28;20486;-77
2021/06/12 14:33:17;;;;;;;5.63;1.40;;;;;;;;;;5054167;28;20071;-76
2021/06/12 14:35:42;;;;;;;2.50;1.50;;;;;;;;;;5054327;28;20072;-77
2021/06/12 14:38:08;;;;;;;8.25;1.40;;;;;;;;;;5054476;28;20521;-76
2021/06/12 14:40:33;;;;;;;3.25;1.65;;;;;;;;;;5054726;28;20045;-75
2021/06/12 14:42:59;;;;;;;7.97;1.70;;;;;;;;;;5053902;28;20145;-77
2021/06/12 14:45:24;;;;;;;3.58;1.58;;;;;;;;;;5054042;28;20395;-77